sensor_id;sensor_type;location;lat;lon;timestamp;pressure;altitude;pressure_sealevel;temperature;humidity
55733;BME280;41637;52.364;9.910;2023-05-20T00:01:54;101803.10;;;11.75;65.02
55733;BME280;41637;52.364;9.910;2023-05-20T00:04:21;101800.42;;;11.72;65.21
55733;BME280;41637;52.364;9.910;2023-05-20T00:06:48;101800.86;;;11.69;65.61
55733;BME280;41637;52.364;9.910;2023-05-20T00:09:14;101802.65;;;11.66;65.48
55733;BME280;41637;52.364;9.910;2023-05-20T00:11:42;101804.54;;;11.63;65.59
55733;BME280;41637;52.364;9.910;2023-05-20T00:14:09;101806.20;;;11.60;65.68
55733;BME280;41637;52.364;9.910;2023-05-20T00:16:36;101802.83;;;11.57;65.81
55733;BME280;41637;52.364;9.910;2023-05-20T00:19:03;101800.51;;;11.54;66.01
55733;BME280;41637;52.364;9.910;2023-05-20T00:21:29;101800.65;;;11.51;66.24
55733;BME280;41637;52.364;9.910;2023-05-20T00:23:56;101799.95;;;11.47;66.35
55733;BME280;41637;52.364;9.910;2023-05-20T00:26:23;101798.08;;;11.42;66.35
55733;BME280;41637;52.364;9.910;2023-05-20T00:28:51;101794.77;;;11.38;66.57
55733;BME280;41637;52.364;9.910;2023-05-20T00:31:19;101797.53;;;11.34;66.76
55733;BME280;41637;52.364;9.910;2023-05-20T00:33:47;101800.38;;;11.30;66.82
55733;BME280;41637;52.364;9.910;2023-05-20T00:36:14;101799.14;;;11.26;66.99
55733;BME280;41637;52.364;9.910;2023-05-20T00:38:42;101795.36;;;11.21;67.20
55733;BME280;41637;52.364;9.910;2023-05-20T00:41:09;101794.42;;;11.17;67.47
55733;BME280;41637;52.364;9.910;2023-05-20T00:43:35;101796.34;;;11.14;67.52
55733;BME280;41637;52.364;9.910;2023-05-20T00:46:02;101791.70;;;11.09;67.81
55733;BME280;41637;52.364;9.910;2023-05-20T00:48:35;101789.13;;;11.04;67.93
55733;BME280;41637;52.364;9.910;2023-05-20T00:51:05;101788.86;;;10.99;68.07
55733;BME280;41637;52.364;9.910;2023-05-20T00:53:33;101788.41;;;10.95;68.46
55733;BME280;41637;52.364;9.910;2023-05-20T00:56:03;101784.88;;;10.91;68.61
55733;BME280;41637;52.364;9.910;2023-05-20T00:58:30;101789.23;;;10.88;68.65
55733;BME280;41637;52.364;9.910;2023-05-20T01:00:57;101791.41;;;10.86;68.72
55733;BME280;41637;52.364;9.910;2023-05-20T01:03:24;101795.43;;;10.83;68.87
55733;BME280;41637;52.364;9.910;2023-05-20T01:05:53;101789.94;;;10.77;68.88
55733;BME280;41637;52.364;9.910;2023-05-20T01:08:24;101792.05;;;10.74;69.00
55733;BME280;41637;52.364;9.910;2023-05-20T01:11:05;101791.02;;;10.72;69.02
55733;BME280;41637;52.364;9.910;2023-05-20T01:13:44;101792.20;;;10.71;69.07
55733;BME280;41637;52.364;9.910;2023-05-20T01:16:14;101791.27;;;10.69;69.18
55733;BME280;41637;52.364;9.910;2023-05-20T01:18:44;101793.23;;;10.67;69.00
55733;BME280;41637;52.364;9.910;2023-05-20T01:21:14;101793.15;;;10.65;69.37
55733;BME280;41637;52.364;9.910;2023-05-20T01:23:41;101792.40;;;10.61;69.25
55733;BME280;41637;52.364;9.910;2023-05-20T01:26:08;101787.67;;;10.59;69.26
55733;BME280;41637;52.364;9.910;2023-05-20T01:28:40;101784.39;;;10.56;69.53
55733;BME280;41637;52.364;9.910;2023-05-20T01:31:22;101788.67;;;10.54;69.54
55733;BME280;41637;52.364;9.910;2023-05-20T01:33:54;101785.20;;;10.51;69.50
55733;BME280;41637;52.364;9.910;2023-05-20T01:36:22;101787.91;;;10.49;69.78
55733;BME280;41637;52.364;9.910;2023-05-20T01:38:50;101789.91;;;10.47;69.47
55733;BME280;41637;52.364;9.910;2023-05-20T01:41:17;101785.60;;;10.44;69.45
55733;BME280;41637;52.364;9.910;2023-05-20T01:43:44;101782.95;;;10.42;69.54
55733;BME280;41637;52.364;9.910;2023-05-20T01:46:11;101780.95;;;10.40;69.71
55733;BME280;41637;52.364;9.910;2023-05-20T01:48:37;101777.44;;;10.38;69.58
55733;BME280;41637;52.364;9.910;2023-05-20T01:51:04;101781.42;;;10.35;69.59
55733;BME280;41637;52.364;9.910;2023-05-20T01:53:31;101776.71;;;10.33;69.68
55733;BME280;41637;52.364;9.910;2023-05-20T01:55:58;101774.11;;;10.31;69.65
55733;BME280;41637;52.364;9.910;2023-05-20T01:58:25;101773.95;;;10.28;69.75
55733;BME280;41637;52.364;9.910;2023-05-20T02:00:51;101771.50;;;10.26;69.79
55733;BME280;41637;52.364;9.910;2023-05-20T02:03:19;101768.48;;;10.24;69.73
55733;BME280;41637;52.364;9.910;2023-05-20T02:05:46;101771.91;;;10.24;69.60
55733;BME280;41637;52.364;9.910;2023-05-20T02:08:12;101769.89;;;10.23;70.07
55733;BME280;41637;52.364;9.910;2023-05-20T02:10:39;101766.48;;;10.21;69.78
55733;BME280;41637;52.364;9.910;2023-05-20T02:13:06;101762.26;;;10.19;70.05
55733;BME280;41637;52.364;9.910;2023-05-20T02:15:33;101760.45;;;10.17;69.98
55733;BME280;41637;52.364;9.910;2023-05-20T02:18:00;101759.04;;;10.16;70.25
55733;BME280;41637;52.364;9.910;2023-05-20T02:20:28;101757.50;;;10.13;70.16
55733;BME280;41637;52.364;9.910;2023-05-20T02:22:55;101758.98;;;10.12;70.32
55733;BME280;41637;52.364;9.910;2023-05-20T02:25:21;101760.16;;;10.11;70.37
55733;BME280;41637;52.364;9.910;2023-05-20T02:27:48;101760.71;;;10.11;70.24
55733;BME280;41637;52.364;9.910;2023-05-20T02:30:15;101764.99;;;10.11;70.42
55733;BME280;41637;52.364;9.910;2023-05-20T02:32:42;101762.98;;;10.11;70.52
55733;BME280;41637;52.364;9.910;2023-05-20T02:35:09;101762.11;;;10.11;70.49
55733;BME280;41637;52.364;9.910;2023-05-20T02:37:36;101762.32;;;10.11;70.63
55733;BME280;41637;52.364;9.910;2023-05-20T02:40:05;101761.48;;;10.11;70.74
55733;BME280;41637;52.364;9.910;2023-05-20T02:42:34;101765.48;;;10.11;70.51
55733;BME280;41637;52.364;9.910;2023-05-20T02:45:01;101767.39;;;10.12;70.51
55733;BME280;41637;52.364;9.910;2023-05-20T02:47:27;101775.14;;;10.12;70.39
55733;BME280;41637;52.364;9.910;2023-05-20T02:49:54;101773.27;;;10.13;70.38
55733;BME280;41637;52.364;9.910;2023-05-20T02:52:21;101773.73;;;10.15;70.45
55733;BME280;41637;52.364;9.910;2023-05-20T02:54:48;101772.73;;;10.17;70.36
55733;BME280;41637;52.364;9.910;2023-05-20T02:57:15;101773.06;;;10.19;70.40
55733;BME280;41637;52.364;9.910;2023-05-20T02:59:42;101771.09;;;10.21;70.48
55733;BME280;41637;52.364;9.910;2023-05-20T03:02:09;101770.20;;;10.23;70.36
55733;BME280;41637;52.364;9.910;2023-05-20T03:04:35;101766.48;;;10.25;70.43
55733;BME280;41637;52.364;9.910;2023-05-20T03:07:05;101763.06;;;10.26;70.49
55733;BME280;41637;52.364;9.910;2023-05-20T03:09:32;101766.23;;;10.28;70.47
55733;BME280;41637;52.364;9.910;2023-05-20T03:11:59;101766.58;;;10.30;70.39
55733;BME280;41637;52.364;9.910;2023-05-20T03:14:26;101765.77;;;10.33;70.21
55733;BME280;41637;52.364;9.910;2023-05-20T03:16:53;101764.17;;;10.35;70.31
55733;BME280;41637;52.364;9.910;2023-05-20T03:19:23;101765.73;;;10.37;70.32
55733;BME280;41637;52.364;9.910;2023-05-20T03:21:50;101766.33;;;10.38;70.23
55733;BME280;41637;52.364;9.910;2023-05-20T03:24:17;101765.17;;;10.41;70.11
55733;BME280;41637;52.364;9.910;2023-05-20T03:26:43;101762.53;;;10.44;70.09
55733;BME280;41637;52.364;9.910;2023-05-20T03:29:11;101760.71;;;10.48;70.28
55733;BME280;41637;52.364;9.910;2023-05-20T03:31:38;101759.02;;;10.51;70.20
55733;BME280;41637;52.364;9.910;2023-05-20T03:34:06;101760.23;;;10.55;70.10
55733;BME280;41637;52.364;9.910;2023-05-20T03:36:33;101760.98;;;10.58;70.08
55733;BME280;41637;52.364;9.910;2023-05-20T03:39:00;101764.90;;;10.64;69.92
55733;BME280;41637;52.364;9.910;2023-05-20T03:41:27;101763.95;;;10.68;69.86
55733;BME280;41637;52.364;9.910;2023-05-20T03:43:54;101766.10;;;10.73;69.62
55733;BME280;41637;52.364;9.910;2023-05-20T03:46:21;101764.65;;;10.77;69.64
55733;BME280;41637;52.364;9.910;2023-05-20T03:48:47;101760.53;;;10.83;69.60
55733;BME280;41637;52.364;9.910;2023-05-20T03:51:14;101765.67;;;10.89;69.69
55733;BME280;41637;52.364;9.910;2023-05-20T03:53:41;101766.44;;;10.93;69.46
55733;BME280;41637;52.364;9.910;2023-05-20T03:56:08;101769.16;;;10.98;69.43
55733;BME280;41637;52.364;9.910;2023-05-20T03:58:35;101767.27;;;11.03;69.28
55733;BME280;41637;52.364;9.910;2023-05-20T04:01:04;101769.34;;;11.09;69.26
55733;BME280;41637;52.364;9.910;2023-05-20T04:03:31;101772.98;;;11.15;69.07
55733;BME280;41637;52.364;9.910;2023-05-20T04:05:58;101772.53;;;11.20;68.77
55733;BME280;41637;52.364;9.910;2023-05-20T04:08:25;101773.05;;;11.23;68.74
55733;BME280;41637;52.364;9.910;2023-05-20T04:10:56;101774.55;;;11.26;68.57
55733;BME280;41637;52.364;9.910;2023-05-20T04:13:24;101774.88;;;11.30;68.45
55733;BME280;41637;52.364;9.910;2023-05-20T04:15:51;101773.44;;;11.33;68.23
55733;BME280;41637;52.364;9.910;2023-05-20T04:18:18;101775.85;;;11.36;68.06
55733;BME280;41637;52.364;9.910;2023-05-20T04:20:46;101773.00;;;11.39;68.08
55733;BME280;41637;52.364;9.910;2023-05-20T04:23:13;101770.98;;;11.42;68.11
55733;BME280;41637;52.364;9.910;2023-05-20T04:25:40;101769.59;;;11.46;67.99
55733;BME280;41637;52.364;9.910;2023-05-20T04:28:07;101769.86;;;11.50;68.00
55733;BME280;41637;52.364;9.910;2023-05-20T04:30:36;101768.67;;;11.53;67.88
55733;BME280;41637;52.364;9.910;2023-05-20T04:33:03;101766.34;;;11.57;67.84
55733;BME280;41637;52.364;9.910;2023-05-20T04:35:29;101770.91;;;11.59;67.54
55733;BME280;41637;52.364;9.910;2023-05-20T04:37:57;101770.54;;;11.62;67.46
55733;BME280;41637;52.364;9.910;2023-05-20T04:40:24;101767.92;;;11.67;67.40
55733;BME280;41637;52.364;9.910;2023-05-20T04:42:51;101762.84;;;11.72;67.23
55733;BME280;41637;52.364;9.910;2023-05-20T04:45:18;101759.95;;;11.78;67.15
55733;BME280;41637;52.364;9.910;2023-05-20T04:47:46;101757.29;;;11.83;66.96
55733;BME280;41637;52.364;9.910;2023-05-20T04:50:13;101757.02;;;11.88;66.89
55733;BME280;41637;52.364;9.910;2023-05-20T04:52:40;101758.81;;;11.94;66.84
55733;BME280;41637;52.364;9.910;2023-05-20T04:55:08;101756.44;;;12.02;66.74
55733;BME280;41637;52.364;9.910;2023-05-20T04:57:37;101755.30;;;12.10;66.55
55733;BME280;41637;52.364;9.910;2023-05-20T05:00:09;101756.57;;;12.18;66.49
55733;BME280;41637;52.364;9.910;2023-05-20T05:02:38;101753.00;;;12.23;66.46
55733;BME280;41637;52.364;9.910;2023-05-20T05:05:06;101754.69;;;12.31;66.35
55733;BME280;41637;52.364;9.910;2023-05-20T05:07:33;101753.78;;;12.36;66.31
55733;BME280;41637;52.364;9.910;2023-05-20T05:10:00;101748.61;;;12.43;66.36
55733;BME280;41637;52.364;9.910;2023-05-20T05:12:27;101748.11;;;12.50;66.26
55733;BME280;41637;52.364;9.910;2023-05-20T05:14:54;101744.17;;;12.57;66.06
55733;BME280;41637;52.364;9.910;2023-05-20T05:17:21;101746.95;;;12.64;66.03
55733;BME280;41637;52.364;9.910;2023-05-20T05:19:48;101748.80;;;12.70;65.77
55733;BME280;41637;52.364;9.910;2023-05-20T05:22:14;101752.59;;;12.73;65.50
55733;BME280;41637;52.364;9.910;2023-05-20T05:24:41;101751.14;;;12.78;65.74
55733;BME280;41637;52.364;9.910;2023-05-20T05:27:08;101752.51;;;12.82;65.56
55733;BME280;41637;52.364;9.910;2023-05-20T05:29:35;101752.95;;;12.88;65.55
55733;BME280;41637;52.364;9.910;2023-05-20T05:32:02;101755.03;;;12.98;65.73
55733;BME280;41637;52.364;9.910;2023-05-20T05:34:29;101749.59;;;13.08;65.52
55733;BME280;41637;52.364;9.910;2023-05-20T05:36:56;101743.09;;;13.15;65.33
55733;BME280;41637;52.364;9.910;2023-05-20T05:39:23;101741.12;;;13.20;65.47
55733;BME280;41637;52.364;9.910;2023-05-20T05:41:50;101736.91;;;13.27;65.54
55733;BME280;41637;52.364;9.910;2023-05-20T05:44:17;101739.45;;;13.34;65.53
55733;BME280;41637;52.364;9.910;2023-05-20T05:46:43;101737.68;;;13.42;65.34
55733;BME280;41637;52.364;9.910;2023-05-20T05:49:11;101741.91;;;13.51;65.12
55733;BME280;41637;52.364;9.910;2023-05-20T05:51:37;101741.53;;;13.59;65.23
55733;BME280;41637;52.364;9.910;2023-05-20T05:54:04;101741.67;;;13.69;65.11
55733;BME280;41637;52.364;9.910;2023-05-20T05:56:31;101742.48;;;13.76;64.74
55733;BME280;41637;52.364;9.910;2023-05-20T05:58:58;101746.75;;;13.83;64.77
55733;BME280;41637;52.364;9.910;2023-05-20T06:01:25;101746.29;;;13.92;64.58
55733;BME280;41637;52.364;9.910;2023-05-20T06:03:52;101746.86;;;14.01;64.52
55733;BME280;41637;52.364;9.910;2023-05-20T06:06:19;101748.02;;;14.10;64.56
55733;BME280;41637;52.364;9.910;2023-05-20T06:08:46;101746.60;;;14.19;64.37
55733;BME280;41637;52.364;9.910;2023-05-20T06:11:13;101743.56;;;14.29;64.32
55733;BME280;41637;52.364;9.910;2023-05-20T06:13:40;101743.43;;;14.35;63.98
55733;BME280;41637;52.364;9.910;2023-05-20T06:16:06;101739.90;;;14.44;63.98
55733;BME280;41637;52.364;9.910;2023-05-20T06:18:34;101739.94;;;14.54;63.74
55733;BME280;41637;52.364;9.910;2023-05-20T06:21:01;101738.15;;;14.62;63.36
55733;BME280;41637;52.364;9.910;2023-05-20T06:23:29;101733.79;;;14.76;63.72
55733;BME280;41637;52.364;9.910;2023-05-20T06:25:59;101731.41;;;14.94;63.03
55733;BME280;41637;52.364;9.910;2023-05-20T06:28:26;101731.37;;;15.13;62.47
55733;BME280;41637;52.364;9.910;2023-05-20T06:30:55;101731.66;;;15.34;62.27
55733;BME280;41637;52.364;9.910;2023-05-20T06:33:25;101734.66;;;15.52;62.05
55733;BME280;41637;52.364;9.910;2023-05-20T06:35:54;101729.97;;;15.62;61.26
55733;BME280;41637;52.364;9.910;2023-05-20T06:38:22;101732.73;;;15.70;60.91
55733;BME280;41637;52.364;9.910;2023-05-20T06:40:49;101736.67;;;15.79;60.58
55733;BME280;41637;52.364;9.910;2023-05-20T06:43:16;101734.62;;;15.92;60.13
55733;BME280;41637;52.364;9.910;2023-05-20T06:45:43;101736.64;;;16.13;59.65
55733;BME280;41637;52.364;9.910;2023-05-20T06:48:11;101734.88;;;16.31;59.00
55733;BME280;41637;52.364;9.910;2023-05-20T06:50:38;101733.46;;;16.51;58.73
55733;BME280;41637;52.364;9.910;2023-05-20T06:53:05;101732.67;;;16.68;57.42
55733;BME280;41637;52.364;9.910;2023-05-20T06:55:31;101727.14;;;16.78;56.76
55733;BME280;41637;52.364;9.910;2023-05-20T06:57:59;101727.66;;;16.87;56.73
55733;BME280;41637;52.364;9.910;2023-05-20T07:00:26;101723.30;;;16.98;56.79
55733;BME280;41637;52.364;9.910;2023-05-20T07:02:53;101723.55;;;17.11;56.57
55733;BME280;41637;52.364;9.910;2023-05-20T07:05:20;101728.22;;;17.22;56.17
55733;BME280;41637;52.364;9.910;2023-05-20T07:07:47;101724.89;;;17.28;55.44
55733;BME280;41637;52.364;9.910;2023-05-20T07:10:13;101721.86;;;17.36;55.94
55733;BME280;41637;52.364;9.910;2023-05-20T07:12:40;101721.04;;;17.48;55.40
55733;BME280;41637;52.364;9.910;2023-05-20T07:15:07;101719.32;;;17.57;54.56
55733;BME280;41637;52.364;9.910;2023-05-20T07:17:35;101714.71;;;17.65;54.54
55733;BME280;41637;52.364;9.910;2023-05-20T07:20:02;101713.48;;;17.72;53.98
55733;BME280;41637;52.364;9.910;2023-05-20T07:22:29;101712.52;;;17.73;53.26
55733;BME280;41637;52.364;9.910;2023-05-20T07:24:56;101711.67;;;17.75;53.22
55733;BME280;41637;52.364;9.910;2023-05-20T07:27:23;101711.58;;;17.83;53.55
55733;BME280;41637;52.364;9.910;2023-05-20T07:29:50;101710.95;;;17.89;53.69
55733;BME280;41637;52.364;9.910;2023-05-20T07:32:17;101709.81;;;18.00;52.90
55733;BME280;41637;52.364;9.910;2023-05-20T07:34:44;101703.81;;;18.06;52.32
55733;BME280;41637;52.364;9.910;2023-05-20T07:37:11;101704.46;;;18.05;51.86
55733;BME280;41637;52.364;9.910;2023-05-20T07:39:38;101705.23;;;17.93;51.53
55733;BME280;41637;52.364;9.910;2023-05-20T07:42:05;101702.06;;;17.82;52.26
55733;BME280;41637;52.364;9.910;2023-05-20T07:44:32;101701.17;;;17.73;52.54
55733;BME280;41637;52.364;9.910;2023-05-20T07:46:58;101699.27;;;17.59;52.53
55733;BME280;41637;52.364;9.910;2023-05-20T07:49:25;101703.92;;;17.43;53.09
55733;BME280;41637;52.364;9.910;2023-05-20T07:51:52;101698.63;;;17.38;53.15
55733;BME280;41637;52.364;9.910;2023-05-20T07:54:18;101693.05;;;17.36;53.44
55733;BME280;41637;52.364;9.910;2023-05-20T07:56:45;101690.71;;;17.43;53.84
55733;BME280;41637;52.364;9.910;2023-05-20T07:59:12;101693.83;;;17.52;53.47
55733;BME280;41637;52.364;9.910;2023-05-20T08:01:40;101691.27;;;17.68;53.61
55733;BME280;41637;52.364;9.910;2023-05-20T08:04:08;101692.81;;;17.87;53.76
55733;BME280;41637;52.364;9.910;2023-05-20T08:06:35;101692.60;;;18.03;52.78
55733;BME280;41637;52.364;9.910;2023-05-20T08:09:02;101692.50;;;18.10;51.86
55733;BME280;41637;52.364;9.910;2023-05-20T08:11:29;101694.82;;;18.21;51.65
55733;BME280;41637;52.364;9.910;2023-05-20T08:13:56;101692.23;;;18.40;51.36
55733;BME280;41637;52.364;9.910;2023-05-20T08:16:22;101685.48;;;18.46;51.02
55733;BME280;41637;52.364;9.910;2023-05-20T08:18:49;101684.77;;;18.51;51.25
55733;BME280;41637;52.364;9.910;2023-05-20T08:21:17;101685.59;;;18.59;51.07
55733;BME280;41637;52.364;9.910;2023-05-20T08:23:43;101682.98;;;18.62;51.02
55733;BME280;41637;52.364;9.910;2023-05-20T08:26:10;101682.66;;;18.67;50.74
55733;BME280;41637;52.364;9.910;2023-05-20T08:28:37;101681.14;;;18.69;51.04
55733;BME280;41637;52.364;9.910;2023-05-20T08:31:04;101676.71;;;18.75;50.75
55733;BME280;41637;52.364;9.910;2023-05-20T08:33:31;101679.68;;;18.82;50.54
55733;BME280;41637;52.364;9.910;2023-05-20T08:35:57;101676.05;;;18.87;50.29
55733;BME280;41637;52.364;9.910;2023-05-20T08:38:24;101673.36;;;18.98;50.51
55733;BME280;41637;52.364;9.910;2023-05-20T08:40:55;101666.05;;;19.04;49.57
55733;BME280;41637;52.364;9.910;2023-05-20T08:43:23;101666.80;;;18.96;49.69
55733;BME280;41637;52.364;9.910;2023-05-20T08:45:49;101671.05;;;18.90;50.17
55733;BME280;41637;52.364;9.910;2023-05-20T08:48:22;101668.40;;;18.83;50.46
55733;BME280;41637;52.364;9.910;2023-05-20T08:50:50;101667.95;;;18.89;50.89
55733;BME280;41637;52.364;9.910;2023-05-20T08:53:18;101662.77;;;18.94;50.98
55733;BME280;41637;52.364;9.910;2023-05-20T08:55:52;101664.48;;;18.96;50.69
55733;BME280;41637;52.364;9.910;2023-05-20T08:58:21;101666.05;;;18.91;50.03
55733;BME280;41637;52.364;9.910;2023-05-20T09:00:49;101671.17;;;18.74;50.07
55733;BME280;41637;52.364;9.910;2023-05-20T09:03:16;101669.80;;;18.65;50.11
55733;BME280;41637;52.364;9.910;2023-05-20T09:05:44;101670.63;;;18.66;50.55
55733;BME280;41637;52.364;9.910;2023-05-20T09:08:11;101674.05;;;18.61;50.54
55733;BME280;41637;52.364;9.910;2023-05-20T09:10:39;101669.73;;;18.46;50.96
55733;BME280;41637;52.364;9.910;2023-05-20T09:13:07;101671.27;;;18.26;51.09
55733;BME280;41637;52.364;9.910;2023-05-20T09:15:36;101672.92;;;18.08;51.47
55733;BME280;41637;52.364;9.910;2023-05-20T09:18:05;101672.25;;;17.94;52.29
55733;BME280;41637;52.364;9.910;2023-05-20T09:20:34;101674.88;;;17.80;52.91
55733;BME280;41637;52.364;9.910;2023-05-20T09:23:07;101676.38;;;17.76;53.29
55733;BME280;41637;52.364;9.910;2023-05-20T09:25:35;101670.63;;;17.74;53.28
55733;BME280;41637;52.364;9.910;2023-05-20T09:28:06;101677.46;;;17.78;53.54
55733;BME280;41637;52.364;9.910;2023-05-20T09:30:34;101675.66;;;17.79;53.09
55733;BME280;41637;52.364;9.910;2023-05-20T09:33:03;101677.51;;;17.88;53.28
55733;BME280;41637;52.364;9.910;2023-05-20T09:35:34;101677.02;;;18.10;53.03
55733;BME280;41637;52.364;9.910;2023-05-20T09:38:04;101676.55;;;18.21;51.93
55733;BME280;41637;52.364;9.910;2023-05-20T09:40:31;101671.84;;;18.31;51.36
55733;BME280;41637;52.364;9.910;2023-05-20T09:43:02;101665.77;;;18.51;51.11
55733;BME280;41637;52.364;9.910;2023-05-20T09:45:29;101659.82;;;18.75;50.42
55733;BME280;41637;52.364;9.910;2023-05-20T09:47:56;101657.62;;;19.05;50.15
55733;BME280;41637;52.364;9.910;2023-05-20T09:50:24;101657.86;;;19.33;49.46
55733;BME280;41637;52.364;9.910;2023-05-20T09:52:52;101652.95;;;19.64;49.20
55733;BME280;41637;52.364;9.910;2023-05-20T09:55:21;101649.60;;;19.83;49.15
55733;BME280;41637;52.364;9.910;2023-05-20T09:57:48;101651.69;;;19.91;48.29
55733;BME280;41637;52.364;9.910;2023-05-20T10:00:15;101645.64;;;19.92;47.77
55733;BME280;41637;52.364;9.910;2023-05-20T10:02:44;101650.49;;;19.91;47.69
55733;BME280;41637;52.364;9.910;2023-05-20T10:05:23;101649.18;;;19.86;48.13
55733;BME280;41637;52.364;9.910;2023-05-20T10:08:13;101655.42;;;19.73;48.38
55733;BME280;41637;52.364;9.910;2023-05-20T10:10:53;101657.79;;;19.58;48.21
55733;BME280;41637;52.364;9.910;2023-05-20T10:19:31;101656.33;;;18.98;49.71
55733;BME280;41637;52.364;9.910;2023-05-20T10:22:00;101648.92;;;18.95;50.20
55733;BME280;41637;52.364;9.910;2023-05-20T10:24:32;101641.59;;;19.06;50.64
55733;BME280;41637;52.364;9.910;2023-05-20T10:27:06;101645.30;;;19.21;50.51
55733;BME280;41637;52.364;9.910;2023-05-20T10:29:55;101647.45;;;19.27;50.25
55733;BME280;41637;52.364;9.910;2023-05-20T10:32:27;101651.58;;;19.29;49.92
55733;BME280;41637;52.364;9.910;2023-05-20T10:34:59;101650.21;;;19.35;50.04
55733;BME280;41637;52.364;9.910;2023-05-20T10:37:31;101646.84;;;19.40;50.03
55733;BME280;41637;52.364;9.910;2023-05-20T10:40:05;101640.29;;;19.47;49.66
55733;BME280;41637;52.364;9.910;2023-05-20T10:42:32;101633.50;;;19.62;49.48
55733;BME280;41637;52.364;9.910;2023-05-20T10:44:59;101634.81;;;19.75;49.29
55733;BME280;41637;52.364;9.910;2023-05-20T10:47:26;101637.51;;;19.72;48.81
55733;BME280;41637;52.364;9.910;2023-05-20T10:49:53;101633.45;;;19.60;49.03
55733;BME280;41637;52.364;9.910;2023-05-20T10:52:20;101630.99;;;19.55;49.24
55733;BME280;41637;52.364;9.910;2023-05-20T10:54:54;101630.06;;;19.56;49.71
55733;BME280;41637;52.364;9.910;2023-05-20T10:57:21;101624.23;;;19.62;49.64
55733;BME280;41637;52.364;9.910;2023-05-20T10:59:49;101623.30;;;19.69;49.47
55733;BME280;41637;52.364;9.910;2023-05-20T11:02:18;101617.92;;;19.81;49.71
55733;BME280;41637;52.364;9.910;2023-05-20T11:04:45;101612.27;;;19.87;49.64
55733;BME280;41637;52.364;9.910;2023-05-20T11:07:12;101609.36;;;19.86;49.62
55733;BME280;41637;52.364;9.910;2023-05-20T11:09:48;101612.47;;;19.79;49.55
55733;BME280;41637;52.364;9.910;2023-05-20T11:12:16;101612.73;;;19.72;49.58
55733;BME280;41637;52.364;9.910;2023-05-20T11:14:42;101615.13;;;19.57;49.58
55733;BME280;41637;52.364;9.910;2023-05-20T11:17:09;101613.30;;;19.43;49.97
55733;BME280;41637;52.364;9.910;2023-05-20T11:19:36;101615.23;;;19.36;50.40
55733;BME280;41637;52.364;9.910;2023-05-20T11:22:06;101617.39;;;19.33;50.52
55733;BME280;41637;52.364;9.910;2023-05-20T11:24:33;101616.45;;;19.42;50.55
55733;BME280;41637;52.364;9.910;2023-05-20T11:27:00;101609.46;;;19.52;50.67
55733;BME280;41637;52.364;9.910;2023-05-20T11:29:27;101604.46;;;19.63;50.76
55733;BME280;41637;52.364;9.910;2023-05-20T11:31:58;101600.81;;;19.65;50.39
55733;BME280;41637;52.364;9.910;2023-05-20T11:34:25;101599.71;;;19.62;50.31
55733;BME280;41637;52.364;9.910;2023-05-20T11:36:58;101592.50;;;19.51;50.47
55733;BME280;41637;52.364;9.910;2023-05-20T11:39:28;101591.70;;;19.38;51.13
55733;BME280;41637;52.364;9.910;2023-05-20T11:41:56;101590.45;;;19.29;51.44
55733;BME280;41637;52.364;9.910;2023-05-20T11:44:23;101588.73;;;19.25;52.14
55733;BME280;41637;52.364;9.910;2023-05-20T11:46:50;101584.15;;;19.33;52.41
55733;BME280;41637;52.364;9.910;2023-05-20T11:49:17;101579.29;;;19.66;52.06
55733;BME280;41637;52.364;9.910;2023-05-20T11:51:43;101571.91;;;20.03;50.43
55733;BME280;41637;52.364;9.910;2023-05-20T11:54:10;101566.81;;;20.38;49.31
55733;BME280;41637;52.364;9.910;2023-05-20T11:56:38;101564.59;;;20.66;48.25
55733;BME280;41637;52.364;9.910;2023-05-20T11:59:08;101563.89;;;20.97;47.60
55733;BME280;41637;52.364;9.910;2023-05-20T12:01:38;101562.46;;;21.22;47.61
55733;BME280;41637;52.364;9.910;2023-05-20T12:04:10;101563.19;;;21.41;46.94
55733;BME280;41637;52.364;9.910;2023-05-20T12:06:39;101562.19;;;21.45;46.61
55733;BME280;41637;52.364;9.910;2023-05-20T12:09:07;101561.62;;;21.44;46.30
55733;BME280;41637;52.364;9.910;2023-05-20T12:11:36;101556.79;;;21.45;45.96
55733;BME280;41637;52.364;9.910;2023-05-20T12:14:03;101551.43;;;21.40;45.83
55733;BME280;41637;52.364;9.910;2023-05-20T12:16:31;101550.30;;;21.36;45.72
55733;BME280;41637;52.364;9.910;2023-05-20T12:18:58;101550.46;;;21.34;45.66
55733;BME280;41637;52.364;9.910;2023-05-20T12:21:26;101546.47;;;21.27;46.28
55733;BME280;41637;52.364;9.910;2023-05-20T12:23:53;101542.94;;;21.34;46.52
55733;BME280;41637;52.364;9.910;2023-05-20T12:26:25;101545.93;;;21.42;46.76
55733;BME280;41637;52.364;9.910;2023-05-20T12:28:53;101540.80;;;21.58;46.42
55733;BME280;41637;52.364;9.910;2023-05-20T12:31:20;101533.58;;;21.65;45.74
55733;BME280;41637;52.364;9.910;2023-05-20T12:33:47;101531.30;;;21.54;45.73
55733;BME280;41637;52.364;9.910;2023-05-20T12:36:14;101530.05;;;21.45;46.28
55733;BME280;41637;52.364;9.910;2023-05-20T12:38:40;101525.47;;;21.38;46.60
55733;BME280;41637;52.364;9.910;2023-05-20T12:41:07;101530.02;;;21.27;46.35
55733;BME280;41637;52.364;9.910;2023-05-20T12:43:34;101533.89;;;21.08;46.52
55733;BME280;41637;52.364;9.910;2023-05-20T12:46:03;101533.94;;;20.85;46.97
55733;BME280;41637;52.364;9.910;2023-05-20T12:48:30;101530.71;;;20.64;47.52
55733;BME280;41637;52.364;9.910;2023-05-20T12:50:57;101524.67;;;20.41;47.77
55733;BME280;41637;52.364;9.910;2023-05-20T12:53:24;101521.23;;;20.30;47.98
55733;BME280;41637;52.364;9.910;2023-05-20T12:55:50;101524.70;;;20.27;48.11
55733;BME280;41637;52.364;9.910;2023-05-20T12:58:18;101527.39;;;20.33;48.09
55733;BME280;41637;52.364;9.910;2023-05-20T13:00:45;101518.18;;;20.34;48.01